createdAt,value
2019-04-21T00:03:18.175Z,47.20
2019-04-21T00:06:59.843Z,47.30
2019-04-21T00:10:27.188Z,47.80
2019-04-21T00:13:42.558Z,48.10
2019-04-21T00:17:00.616Z,47.80
2019-04-21T00:20:28.870Z,48.60
2019-04-21T00:24:16.480Z,49.20
2019-04-21T00:27:47.751Z,48.90
2019-04-21T00:31:14.084Z,49.00
2019-04-21T00:34:21.762Z,50.30
2019-04-21T00:38:09.718Z,50.50
2019-04-21T00:41:29.652Z,50.80
2019-04-21T00:44:51.973Z,50.10
2019-04-21T00:48:25.531Z,50.30
2019-04-21T00:52:14.484Z,50.60
2019-04-21T00:55:30.958Z,50.70
2019-04-21T00:58:46.268Z,51.50
2019-04-21T01:02:09.156Z,51.50
2019-04-21T01:05:45.168Z,52.30
2019-04-21T01:08:59.065Z,52.30
2019-04-21T01:12:26.902Z,53.20
2019-04-21T01:15:57.186Z,53.00
2019-04-21T01:19:13.129Z,54.30
2019-04-21T01:22:19.724Z,54.10
2019-04-21T01:25:55.470Z,56.20
2019-04-21T01:29:29.006Z,56.20
2019-04-21T01:32:55.802Z,56.20
2019-04-21T01:36:13.992Z,56.40
2019-04-21T01:39:48.231Z,57.10
2019-04-21T01:43:24.902Z,59.70
2019-04-21T01:46:45.592Z,60.00
2019-04-21T01:50:02.849Z,63.40
2019-04-21T01:54:12.518Z,63.80
2019-04-21T01:57:52.768Z,65.40
2019-04-21T02:01:21.662Z,64.80
2019-04-21T02:04:54.259Z,68.80
2019-04-21T02:08:10.882Z,70.90
2019-04-21T02:11:35.744Z,71.60
2019-04-21T02:15:04.624Z,72.50
2019-04-21T02:18:34.947Z,74.40
2019-04-21T02:21:43.629Z,74.80
2019-04-21T02:25:20.125Z,79.50
2019-04-21T02:32:21.707Z,80.10
2019-04-21T02:36:12.223Z,82.70
2019-04-21T02:39:23.106Z,84.10
2019-04-21T02:42:39.509Z,87.30
2019-04-21T02:45:56.892Z,88.90
2019-04-21T02:49:45.385Z,90.30
2019-04-21T02:53:00.959Z,90.80
2019-04-21T02:56:20.451Z,91.50
2019-04-21T02:59:49.362Z,93.50
2019-04-21T03:07:19.242Z,96.30
2019-04-21T03:10:53.259Z,94.50
2019-04-21T03:14:16.771Z,94.90
2019-04-21T03:17:43.660Z,93.90
2019-04-21T03:21:08.557Z,92.90
2019-04-21T03:24:39.929Z,93.40
2019-04-21T03:31:34.761Z,91.60
2019-04-21T03:35:37.902Z,91.50
2019-04-21T03:38:16.743Z,91.90
2019-04-21T03:41:38.012Z,94.10
2019-04-21T03:48:30.498Z,95.00
2019-04-21T03:51:57.226Z,95.40
2019-04-21T03:55:48.854Z,95.90
2019-04-21T03:59:03.753Z,94.70
2019-04-21T04:02:24.402Z,94.70
2019-04-21T04:06:19.577Z,95.20
2019-04-21T04:09:54.018Z,94.50
2019-04-21T04:13:19.724Z,94.70
2019-04-21T04:16:50.222Z,95.10
2019-04-21T04:20:09.050Z,95.00
2019-04-21T04:23:43.809Z,95.30
2019-04-21T04:27:02.362Z,94.80
2019-04-21T04:30:21.764Z,95.60
2019-04-21T04:34:04.984Z,96.40
2019-04-21T04:40:46.912Z,97.30
2019-04-21T04:44:11.117Z,97.30
2019-04-21T04:47:37.088Z,98.50
2019-04-21T04:51:01.929Z,98.90
2019-04-21T04:54:39.878Z,99.10
2019-04-21T05:01:21.476Z,99.90
2019-04-21T05:08:08.594Z,99.20
2019-04-21T05:11:40.212Z,98.90
2019-04-21T05:14:51.707Z,99.80
2019-04-21T05:18:25.193Z,99.90
2019-04-21T05:24:58.410Z,99.90
2019-04-21T05:28:15.233Z,99.90
2019-04-21T05:32:12.807Z,99.90
2019-04-21T05:36:09.408Z,99.90
2019-04-21T05:39:37.941Z,99.90
2019-04-21T05:43:10.542Z,99.90
2019-04-21T05:46:32.317Z,99.90
2019-04-21T05:50:00.890Z,99.90
2019-04-21T05:56:55.526Z,99.90
2019-04-21T06:00:23.556Z,99.90
2019-04-21T06:03:49.162Z,99.90
2019-04-21T06:07:20.131Z,99.90
2019-04-21T06:10:38.345Z,99.90
2019-04-21T06:14:01.420Z,99.90
2019-04-21T06:17:30.288Z,99.90
2019-04-21T06:20:54.726Z,99.90
2019-04-21T06:24:15.742Z,99.90
2019-04-21T06:27:42.421Z,99.90
2019-04-21T06:31:14.582Z,99.90
2019-04-21T06:34:43.835Z,99.90
2019-04-21T06:37:56.493Z,99.90
2019-04-21T06:41:26.494Z,99.90
2019-04-21T06:44:54.040Z,99.90
2019-04-21T06:48:15.328Z,99.90
2019-04-21T06:51:48.404Z,99.90
2019-04-21T06:55:10.310Z,99.40
2019-04-21T06:58:27.856Z,99.30
2019-04-21T07:05:15.708Z,99.10
2019-04-21T07:08:44.645Z,98.70
2019-04-21T07:12:00.001Z,98.30
2019-04-21T07:15:30.436Z,97.10
2019-04-21T07:22:24.543Z,96.20
2019-04-21T07:25:45.845Z,96.10
2019-04-21T07:29:17.062Z,96.00
2019-04-21T07:32:36.517Z,95.70
2019-04-21T07:36:06.341Z,94.80
2019-04-21T07:39:25.546Z,94.60
2019-04-21T07:42:47.782Z,93.60
2019-04-21T07:46:10.608Z,92.50
2019-04-21T07:49:52.861Z,92.70
2019-04-21T07:53:22.784Z,91.80
2019-04-21T07:56:32.442Z,91.20
2019-04-21T08:03:37.247Z,88.30
2019-04-21T08:06:58.219Z,86.80
2019-04-21T08:10:22.546Z,85.30
2019-04-21T08:13:48.660Z,85.00
2019-04-21T08:17:14.340Z,85.70
2019-04-21T08:20:34.933Z,84.60
2019-04-21T08:24:04.719Z,83.40
2019-04-21T08:27:37.109Z,80.70
2019-04-21T08:30:56.837Z,79.10
2019-04-21T08:34:25.020Z,78.10
2019-04-21T08:37:46.068Z,81.00
2019-04-21T08:41:08.010Z,77.20
2019-04-21T08:44:44.817Z,74.40
2019-04-21T08:48:02.751Z,74.40
2019-04-21T08:51:27.688Z,72.90
2019-04-21T08:54:55.886Z,69.10
2019-04-21T08:58:34.028Z,72.30
2019-04-21T09:02:23.701Z,68.80
2019-04-21T09:05:47.933Z,69.60
2019-04-21T09:09:14.382Z,68.00
2019-04-21T09:12:34.679Z,67.10
2019-04-21T09:15:58.018Z,66.50
2019-04-21T09:19:38.511Z,65.40
2019-04-21T09:22:47.921Z,64.70
2019-04-21T09:26:18.652Z,65.30
2019-04-21T09:29:32.408Z,63.30
2019-04-21T09:32:52.170Z,63.00
2019-04-21T09:36:17.934Z,61.30
2019-04-21T09:39:40.977Z,61.00
2019-04-21T09:43:07.996Z,60.50
2019-04-21T09:46:29.909Z,58.10
2019-04-21T09:49:54.321Z,55.30
2019-04-21T09:53:28.726Z,52.60
2019-04-21T09:56:52.112Z,51.00
2019-04-21T10:00:15.213Z,45.90
2019-04-21T10:03:41.384Z,44.80
2019-04-21T10:06:58.779Z,40.80
2019-04-21T10:10:23.089Z,36.10
2019-04-21T10:13:46.366Z,34.50
2019-04-21T10:17:25.365Z,32.80
2019-04-21T10:20:49.183Z,31.80
2019-04-21T10:24:12.579Z,30.30
2019-04-21T10:27:36.975Z,28.90
2019-04-21T10:31:00.785Z,28.70
2019-04-21T10:34:29.301Z,27.30
2019-04-21T10:38:03.408Z,28.20
2019-04-21T10:41:19.270Z,29.80
2019-04-21T10:44:43.238Z,29.80
2019-04-21T10:48:07.323Z,30.10
2019-04-21T10:51:30.911Z,28.80
2019-04-21T10:55:12.846Z,30.20
2019-04-21T10:58:24.534Z,30.20
2019-04-21T11:01:47.767Z,30.90
2019-04-21T11:05:12.404Z,30.70
2019-04-21T11:08:41.556Z,30.10
2019-04-21T11:12:02.003Z,28.50
2019-04-21T11:15:25.329Z,26.70
2019-04-21T11:18:48.473Z,25.10
2019-04-21T11:22:12.664Z,25.20
2019-04-21T11:25:37.751Z,25.10
2019-04-21T11:29:01.209Z,23.40
2019-04-21T11:32:25.230Z,23.00
2019-04-21T11:35:49.019Z,22.00
2019-04-21T11:39:31.577Z,22.00
2019-04-21T11:42:48.097Z,21.80
2019-04-21T11:46:12.764Z,21.70
2019-04-21T11:49:36.989Z,20.70
2019-04-21T11:53:01.158Z,21.20
2019-04-21T11:56:25.102Z,20.10
2019-04-21T11:59:48.334Z,20.00
2019-04-21T12:03:31.720Z,19.40
2019-04-21T12:07:29.331Z,19.60
2019-04-21T12:11:11.925Z,18.90
2019-04-21T12:14:47.998Z,18.30
2019-04-21T12:18:32.448Z,18.80
2019-04-21T12:22:31.937Z,18.80
2019-04-21T12:26:13.844Z,17.40
2019-04-21T12:30:11.680Z,16.70
2019-04-21T12:33:56.575Z,17.60
2019-04-21T12:37:33.034Z,16.70
2019-04-21T12:41:08.707Z,17.40
2019-04-21T12:44:45.448Z,16.70
2019-04-21T12:48:21.929Z,15.20
2019-04-21T12:52:05.888Z,15.70
2019-04-21T12:55:49.909Z,16.00
2019-04-21T12:59:34.531Z,15.80
2019-04-21T13:03:30.568Z,15.60
2019-04-21T13:07:13.360Z,14.90
2019-04-21T13:14:47.481Z,16.30
2019-04-21T13:18:30.973Z,15.60
2019-04-21T13:22:14.191Z,14.60
2019-04-21T13:25:56.828Z,16.30
2019-04-21T13:29:32.660Z,16.00
2019-04-21T13:33:15.538Z,15.60
2019-04-21T13:36:59.309Z,15.10
2019-04-21T13:41:22.854Z,15.60
2019-04-21T13:44:50.987Z,15.50
2019-04-21T13:48:48.423Z,15.30
2019-04-21T13:52:31.020Z,14.80
2019-04-21T13:56:06.977Z,14.50
2019-04-21T13:59:51.306Z,15.90
2019-04-21T14:03:35.476Z,15.50
2019-04-21T14:07:26.029Z,14.60
2019-04-21T14:11:09.285Z,15.30
2019-04-21T14:14:52.511Z,15.20
2019-04-21T14:18:49.947Z,14.80
2019-04-21T14:22:26.405Z,14.40
2019-04-21T14:26:01.815Z,15.80
2019-04-21T14:29:37.773Z,15.00
2019-04-21T14:33:20.537Z,16.10
2019-04-21T14:37:04.601Z,15.70
2019-04-21T14:40:48.189Z,16.00
2019-04-21T14:44:45.078Z,16.00
2019-04-21T14:48:48.687Z,15.30
2019-04-21T14:52:28.733Z,16.00
2019-04-21T14:56:11.237Z,15.70
2019-04-21T14:59:35.205Z,16.10
2019-04-21T15:03:25.903Z,16.30
2019-04-21T15:07:01.669Z,15.70
2019-04-21T15:14:42.291Z,16.00
2019-04-21T15:18:26.438Z,15.90
2019-04-21T15:22:02.743Z,16.20
2019-04-21T15:25:38.487Z,16.00
2019-04-21T15:29:21.098Z,15.60
2019-04-21T15:33:04.598Z,15.80
2019-04-21T15:36:48.210Z,16.10
2019-04-21T15:40:40.406Z,15.70
2019-04-21T15:44:16.551Z,15.70
2019-04-21T15:48:13.997Z,15.60
2019-04-21T15:51:58.017Z,16.20
2019-04-21T15:56:20.567Z,16.50
2019-04-21T16:00:30.961Z,16.60
2019-04-21T16:04:10.733Z,16.80
2019-04-21T16:07:54.182Z,16.40
2019-04-21T16:11:42.078Z,16.20
2019-04-21T16:15:26.144Z,16.90
2019-04-21T16:19:23.025Z,17.40
2019-04-21T16:23:00.188Z,16.70
2019-04-21T16:26:36.098Z,17.80
2019-04-21T16:30:12.133Z,20.20
2019-04-21T16:33:54.947Z,21.60
2019-04-21T16:37:30.239Z,22.40
2019-04-21T16:41:14.132Z,22.70
2019-04-21T16:44:57.283Z,23.00
2019-04-21T16:48:40.157Z,23.70
2019-04-21T16:52:23.649Z,23.70
2019-04-21T16:56:33.167Z,25.60
2019-04-21T17:00:16.347Z,26.20
2019-04-21T17:04:00.319Z,26.90
2019-04-21T17:07:47.422Z,26.60
2019-04-21T17:11:33.651Z,27.00
2019-04-21T17:15:51.901Z,28.70
2019-04-21T17:23:15.705Z,29.50
2019-04-21T17:26:59.560Z,30.30
2019-04-21T17:30:36.469Z,31.20
2019-04-21T17:34:22.951Z,31.40
2019-04-21T17:38:16.402Z,33.10
2019-04-21T17:42:11.743Z,32.10
2019-04-21T17:45:57.450Z,32.10
2019-04-21T17:49:41.132Z,33.00
2019-04-21T17:53:53.796Z,34.80
2019-04-21T17:57:58.126Z,34.50
2019-04-21T18:01:47.429Z,36.00
2019-04-21T18:05:15.240Z,36.00
2019-04-21T18:08:38.292Z,34.70
2019-04-21T18:12:01.566Z,35.60
2019-04-21T18:15:23.051Z,35.90
2019-04-21T18:18:32.612Z,36.10
2019-04-21T18:22:34.791Z,36.50
2019-04-21T18:25:58.219Z,38.10
2019-04-21T18:29:15.839Z,38.30
2019-04-21T18:32:42.359Z,37.90
2019-04-21T18:36:36.291Z,38.30
2019-04-21T18:40:06.806Z,38.60
2019-04-21T18:44:00.441Z,39.70
2019-04-21T18:47:20.058Z,39.30
2019-04-21T18:50:51.070Z,39.80
2019-04-21T18:54:31.381Z,40.20
2019-04-21T18:57:44.418Z,40.80
2019-04-21T19:01:11.830Z,40.50
2019-04-21T19:04:35.133Z,40.30
2019-04-21T19:08:14.915Z,42.40
2019-04-21T19:11:42.915Z,42.40
2019-04-21T19:15:08.530Z,43.20
2019-04-21T19:18:39.836Z,43.10
2019-04-21T19:21:59.896Z,43.60
2019-04-21T19:25:23.596Z,43.50
2019-04-21T19:28:56.069Z,44.60
2019-04-21T19:32:17.151Z,43.50
2019-04-21T19:35:21.459Z,44.70
2019-04-21T19:38:55.994Z,44.50
2019-04-21T19:42:19.126Z,44.70
2019-04-21T19:45:49.787Z,44.60
2019-04-21T19:49:27.569Z,45.40
2019-04-21T19:52:41.041Z,47.30
2019-04-21T19:55:52.139Z,46.70
2019-04-21T19:59:22.179Z,47.10
2019-04-21T20:02:42.712Z,48.10
2019-04-21T20:06:16.889Z,46.80
2019-04-21T20:09:45.192Z,48.20
2019-04-21T20:13:26.025Z,48.00
2019-04-21T20:16:41.609Z,47.90
2019-04-21T20:19:47.857Z,48.10
2019-04-21T20:23:18.048Z,49.50
2019-04-21T20:26:41.583Z,48.70
2019-04-21T20:30:21.779Z,48.40
2019-04-21T20:33:55.194Z,49.60
2019-04-21T20:37:19.365Z,49.50
2019-04-21T20:40:33.005Z,48.90
2019-04-21T20:44:06.266Z,49.20
2019-04-21T20:47:22.892Z,49.70
2019-04-21T20:50:57.684Z,49.80
2019-04-21T20:54:20.788Z,49.20
2019-04-21T20:57:43.372Z,49.60
2019-04-21T21:01:25.450Z,50.20
2019-04-21T21:04:28.070Z,49.80
2019-04-21T21:08:10.209Z,50.40
2019-04-21T21:11:35.323Z,50.20
2019-04-21T21:14:48.996Z,50.90
2019-04-21T21:18:44.966Z,51.40
2019-04-21T21:21:39.998Z,50.70
2019-04-21T21:25:11.733Z,52.70
2019-04-21T21:28:32.660Z,51.90
2019-04-21T21:32:09.754Z,53.10
2019-04-21T21:35:21.792Z,51.90
2019-04-21T21:38:54.580Z,52.90
2019-04-21T21:42:02.826Z,53.60
2019-04-21T21:45:27.528Z,53.10
2019-04-21T21:49:01.759Z,54.80
2019-04-21T21:52:29.721Z,54.40
2019-04-21T21:55:40.576Z,53.80
2019-04-21T21:59:13.746Z,55.60
2019-04-21T22:02:37.131Z,55.90
2019-04-21T22:06:01.896Z,56.60
2019-04-21T22:09:20.158Z,56.90
2019-04-21T22:12:52.884Z,56.80
2019-04-21T22:16:13.569Z,57.40
2019-04-21T22:20:01.894Z,58.20
2019-04-21T22:23:04.084Z,58.90
2019-04-21T22:26:25.233Z,60.00
2019-04-21T22:29:53.490Z,61.00
2019-04-21T22:33:17.360Z,61.30
2019-04-21T22:36:48.724Z,62.50
2019-04-21T22:40:16.671Z,62.20
2019-04-21T22:43:36.447Z,61.80
2019-04-21T22:47:06.148Z,63.20
2019-04-21T22:50:30.691Z,64.80
2019-04-21T22:53:57.614Z,67.90
2019-04-21T22:57:23.749Z,69.60
2019-04-21T23:00:51.270Z,71.50
2019-04-21T23:04:14.030Z,72.60
2019-04-21T23:07:43.737Z,76.00
2019-04-21T23:11:06.544Z,77.60
2019-04-21T23:14:27.967Z,77.80
2019-04-21T23:18:09.287Z,79.70
2019-04-21T23:21:30.524Z,82.20
2019-04-21T23:25:03.384Z,88.10
2019-04-21T23:28:21.008Z,89.00
2019-04-21T23:31:51.762Z,90.10
2019-04-21T23:35:01.655Z,90.40
2019-04-21T23:38:31.971Z,91.00
2019-04-21T23:41:51.684Z,92.10
2019-04-21T23:45:12.490Z,94.40
2019-04-21T23:48:55.950Z,95.00
2019-04-21T23:52:08.047Z,94.90
2019-04-21T23:55:27.349Z,97.60
2019-04-21T23:58:59.008Z,97.90
